createdAt,value
2018-11-20T00:00:29.943Z,98145.84
2018-11-20T00:02:56.399Z,98150.69
2018-11-20T00:05:22.916Z,98152.09
2018-11-20T00:07:49.218Z,98138.34
2018-11-20T00:10:17.817Z,98143.63
2018-11-20T00:12:42.396Z,98144.60
2018-11-20T00:15:08.821Z,98149.13
2018-11-20T00:17:35.458Z,98150.11
2018-11-20T00:20:01.889Z,98154.92
2018-11-20T00:22:28.276Z,98154.70
2018-11-20T00:24:55.221Z,98159.06
2018-11-20T00:27:21.564Z,98154.35
2018-11-20T00:29:48.003Z,98134.91
2018-11-20T00:32:14.348Z,98141.56
2018-11-20T00:34:41.073Z,98139.05
2018-11-20T00:37:07.497Z,98143.73
2018-11-20T00:39:33.851Z,98143.81
2018-11-20T00:42:00.234Z,98139.03
2018-11-20T00:44:26.938Z,98132.11
2018-11-20T00:46:53.367Z,98123.52
2018-11-20T00:49:19.716Z,98120.11
2018-11-20T00:51:46.066Z,98116.65
2018-11-20T00:54:12.487Z,98111.01
2018-11-20T00:56:38.832Z,98105.81
2018-11-20T00:59:05.259Z,98094.53
2018-11-20T01:01:31.901Z,98112.73
2018-11-20T01:03:58.317Z,98109.20
2018-11-20T01:06:24.746Z,98112.53
2018-11-20T01:08:51.167Z,98105.66
2018-11-20T01:11:17.818Z,98108.69
2018-11-20T01:13:44.231Z,98105.64
2018-11-20T01:16:10.664Z,98111.53
2018-11-20T01:18:37.514Z,98112.02
2018-11-20T01:21:04.160Z,98098.16
2018-11-20T01:23:30.595Z,98099.02
2018-11-20T01:25:57.020Z,98094.67
2018-11-20T01:28:23.657Z,98104.66
2018-11-20T01:30:50.244Z,98104.07
2018-11-20T01:33:16.677Z,98093.32
2018-11-20T01:35:43.415Z,98085.50
2018-11-20T01:38:09.770Z,98077.18
2018-11-20T01:40:36.187Z,98079.86
2018-11-20T01:43:02.609Z,98065.50
2018-11-20T01:45:29.257Z,98068.88
2018-11-20T01:47:55.697Z,98068.38
2018-11-20T01:50:22.035Z,98058.89
2018-11-20T01:52:48.745Z,98063.23
2018-11-20T01:55:15.172Z,98058.53
2018-11-20T01:57:41.613Z,98047.13
2018-11-20T02:00:07.953Z,98044.59
2018-11-20T02:02:34.584Z,98050.16
2018-11-20T02:05:01.003Z,98033.24
2018-11-20T02:07:27.785Z,98037.14
2018-11-20T02:09:54.216Z,98037.09
2018-11-20T02:12:20.855Z,98029.20
2018-11-20T02:14:47.208Z,98037.06
2018-11-20T02:17:13.652Z,98039.52
2018-11-20T02:19:41.520Z,98026.66
2018-11-20T02:22:07.871Z,98014.90
2018-11-20T02:24:34.294Z,98016.95
2018-11-20T02:27:00.941Z,98022.10
2018-11-20T02:29:27.380Z,98001.78
2018-11-20T02:31:53.659Z,98005.19
2018-11-20T02:34:20.152Z,97999.62
2018-11-20T02:36:46.861Z,98001.65
2018-11-20T02:39:13.297Z,98006.83
2018-11-20T02:41:39.642Z,97996.86
2018-11-20T02:44:05.987Z,98000.32
2018-11-20T02:46:32.654Z,97999.02
2018-11-20T02:48:59.062Z,97986.09
2018-11-20T02:51:25.569Z,97984.62
2018-11-20T02:53:52.129Z,97971.28
2018-11-20T02:56:18.553Z,97981.58
2018-11-20T02:58:44.909Z,97969.44
2018-11-20T03:01:11.327Z,97950.83
2018-11-20T03:03:37.994Z,97956.89
2018-11-20T03:06:04.395Z,97951.52
2018-11-20T03:08:30.745Z,97946.45
2018-11-20T03:10:57.188Z,97958.47
2018-11-20T03:13:23.816Z,97955.03
2018-11-20T03:15:50.090Z,97952.82
2018-11-20T03:18:16.576Z,97958.94
2018-11-20T03:20:42.931Z,97964.17
2018-11-20T03:23:09.659Z,97968.77
2018-11-20T03:25:36.007Z,97969.56
2018-11-20T03:28:02.347Z,97958.19
2018-11-20T03:30:29.043Z,97948.11
2018-11-20T03:32:55.468Z,97959.57
2018-11-20T03:35:21.893Z,97954.12
2018-11-20T03:37:48.239Z,97950.22
2018-11-20T03:40:14.935Z,97957.14
2018-11-20T03:42:41.294Z,97947.25
2018-11-20T03:45:07.968Z,97955.42
2018-11-20T03:47:37.171Z,97954.56
2018-11-20T03:50:03.512Z,97953.83
2018-11-20T03:52:29.980Z,97950.83
2018-11-20T03:54:56.761Z,97953.73
2018-11-20T03:57:23.196Z,97951.58
2018-11-20T03:59:49.470Z,97946.02
2018-11-20T04:02:15.877Z,97948.11
2018-11-20T04:04:42.589Z,97935.61
2018-11-20T04:07:09.028Z,97944.30
2018-11-20T04:09:35.310Z,97938.92
2018-11-20T04:12:01.798Z,97938.51
2018-11-20T04:14:28.607Z,97931.03
2018-11-20T04:16:55.052Z,97931.45
2018-11-20T04:19:22.670Z,97918.44
2018-11-20T04:21:49.388Z,97910.72
2018-11-20T04:24:15.668Z,97914.20
2018-11-20T04:26:42.164Z,97917.07
2018-11-20T04:29:08.904Z,97915.66
2018-11-20T04:31:35.333Z,97910.53
2018-11-20T04:34:01.685Z,97897.20
2018-11-20T04:36:28.125Z,97897.28
2018-11-20T04:38:54.771Z,97882.63
2018-11-20T04:41:21.283Z,97880.05
2018-11-20T04:43:47.616Z,97885.66
2018-11-20T04:46:14.040Z,97890.25
2018-11-20T04:48:41.104Z,97884.19
2018-11-20T04:51:07.525Z,97864.76
2018-11-20T04:53:34.165Z,97875.08
2018-11-20T04:56:00.588Z,97881.94
2018-11-20T04:58:27.028Z,97875.26
2018-11-20T05:00:53.858Z,97862.66
2018-11-20T05:03:21.664Z,97873.33
2018-11-20T05:05:48.060Z,97868.25
2018-11-20T05:08:14.403Z,97867.39
2018-11-20T05:10:41.336Z,97872.16
2018-11-20T05:13:07.688Z,97871.27
2018-11-20T05:15:34.206Z,97876.80
2018-11-20T05:18:00.627Z,97876.83
2018-11-20T05:20:27.555Z,97873.33
2018-11-20T05:23:00.068Z,97881.14
2018-11-20T05:25:20.336Z,97868.16
2018-11-20T05:27:47.218Z,97866.41
2018-11-20T05:30:13.714Z,97865.20
2018-11-20T05:32:40.091Z,97877.00
2018-11-20T05:35:06.982Z,97861.30
2018-11-20T05:37:33.408Z,97863.05
2018-11-20T05:40:02.213Z,97864.67
2018-11-20T05:42:32.047Z,97852.87
2018-11-20T05:45:00.205Z,97865.09
2018-11-20T05:47:26.721Z,97850.42
2018-11-20T05:49:56.162Z,97853.17
2018-11-20T05:52:22.583Z,97850.09
2018-11-20T05:54:49.005Z,97853.46
2018-11-20T05:57:15.284Z,97846.89
2018-11-20T05:59:41.846Z,97846.98
2018-11-20T06:02:08.626Z,97848.34
2018-11-20T06:04:35.119Z,97850.45
2018-11-20T06:07:01.553Z,97843.67
2018-11-20T06:09:28.271Z,97843.53
2018-11-20T06:11:54.723Z,97852.07
2018-11-20T06:14:21.237Z,97848.17
2018-11-20T06:16:47.877Z,97856.36
2018-11-20T06:19:14.301Z,97856.36
2018-11-20T06:21:40.654Z,97855.88
2018-11-20T06:24:07.376Z,97851.13
2018-11-20T06:26:33.736Z,97855.80
2018-11-20T06:29:00.175Z,97845.48
2018-11-20T06:31:26.868Z,97850.59
2018-11-20T06:33:53.222Z,97840.17
2018-11-20T06:36:20.070Z,97847.48
2018-11-20T06:38:47.709Z,97852.69
2018-11-20T06:41:17.483Z,97851.38
2018-11-20T06:43:43.772Z,97858.75
2018-11-20T06:46:10.501Z,97848.43
2018-11-20T06:48:36.859Z,97844.87
2018-11-20T06:51:03.208Z,97837.95
2018-11-20T06:53:30.211Z,97846.44
2018-11-20T06:55:56.546Z,97842.16
2018-11-20T06:58:24.295Z,97839.58
2018-11-20T07:00:49.599Z,97844.37
2018-11-20T07:03:16.028Z,97842.09
2018-11-20T07:05:42.376Z,97835.26
2018-11-20T07:08:09.183Z,97841.83
2018-11-20T07:10:38.028Z,97842.88
2018-11-20T07:13:04.834Z,97844.69
2018-11-20T07:15:31.953Z,97833.77
2018-11-20T07:17:58.153Z,97841.36
2018-11-20T07:20:24.580Z,97823.58
2018-11-20T07:22:51.219Z,97813.77
2018-11-20T07:25:17.659Z,97816.41
2018-11-20T07:27:44.002Z,97810.73
2018-11-20T07:30:10.680Z,97820.22
2018-11-20T07:32:37.092Z,97824.09
2018-11-20T07:35:06.005Z,97817.42
2018-11-20T07:37:32.714Z,97801.88
2018-11-20T07:39:59.147Z,97809.61
2018-11-20T07:42:25.507Z,97816.09
2018-11-20T07:44:52.168Z,97805.42
2018-11-20T07:47:18.606Z,97812.28
2018-11-20T07:49:45.453Z,97815.68
2018-11-20T07:52:12.115Z,97819.91
2018-11-20T07:54:38.566Z,97821.45
2018-11-20T07:57:04.927Z,97825.68
2018-11-20T07:59:31.588Z,97825.65
2018-11-20T08:01:58.030Z,97832.50
2018-11-20T08:04:24.433Z,97830.77
2018-11-20T08:06:51.159Z,97831.42
2018-11-20T08:09:18.031Z,97839.69
2018-11-20T08:11:44.478Z,97836.09
2018-11-20T08:14:11.175Z,97843.84
2018-11-20T08:16:37.720Z,97839.42
2018-11-20T08:19:04.013Z,97836.89
2018-11-20T08:21:30.742Z,97841.14
2018-11-20T08:23:57.564Z,97838.60
2018-11-20T08:26:24.317Z,97850.80
2018-11-20T08:28:50.454Z,97836.44
2018-11-20T08:31:16.850Z,97842.44
2018-11-20T08:33:43.532Z,97841.02
2018-11-20T08:36:09.945Z,97833.13
2018-11-20T08:38:36.286Z,97840.16
2018-11-20T08:41:02.940Z,97838.41
2018-11-20T08:43:29.364Z,97827.27
2018-11-20T08:45:56.146Z,97828.02
2018-11-20T08:48:27.334Z,97832.42
2018-11-20T08:50:49.302Z,97834.11
2018-11-20T08:53:18.074Z,97838.46
2018-11-20T08:55:44.833Z,97831.44
2018-11-20T08:58:11.159Z,97827.50
2018-11-20T09:03:04.379Z,97821.92
2018-11-20T09:05:30.742Z,97821.51
2018-11-20T09:07:57.169Z,97820.62
2018-11-20T09:10:23.911Z,97819.28
2018-11-20T09:12:50.251Z,97831.00
2018-11-20T09:15:16.712Z,97830.73
2018-11-20T09:17:43.463Z,97827.03
2018-11-20T09:20:09.798Z,97810.88
2018-11-20T09:22:36.193Z,97828.44
2018-11-20T09:25:02.915Z,97822.95
2018-11-20T09:27:29.260Z,97828.03
2018-11-20T09:29:55.725Z,97823.36
2018-11-20T09:32:22.435Z,97821.61
2018-11-20T09:34:48.863Z,97819.80
2018-11-20T09:37:15.357Z,97816.30
2018-11-20T09:39:41.957Z,97818.36
2018-11-20T09:42:08.313Z,97825.18
2018-11-20T09:47:46.163Z,97798.53
2018-11-20T09:50:12.590Z,97804.27
2018-11-20T09:52:39.999Z,97802.06
2018-11-20T09:55:07.411Z,97806.45
2018-11-20T09:57:33.777Z,97784.41
2018-11-20T10:02:28.545Z,97793.93
2018-11-20T10:04:54.911Z,97801.57
2018-11-20T10:07:21.447Z,97793.53
2018-11-20T10:09:48.936Z,97790.66
2018-11-20T10:12:15.532Z,97788.98
2018-11-20T10:14:42.287Z,97783.30
2018-11-20T10:17:10.328Z,97776.90
2018-11-20T10:19:35.835Z,97772.77
2018-11-20T10:22:02.508Z,97767.17
2018-11-20T10:24:29.241Z,97762.55
2018-11-20T10:26:55.669Z,97759.91
2018-11-20T10:29:23.765Z,97742.50
2018-11-20T10:31:50.777Z,97743.84
2018-11-20T10:34:23.021Z,97736.63
2018-11-20T10:36:49.445Z,97747.35
2018-11-20T10:39:16.328Z,97741.97
2018-11-20T10:41:45.114Z,97739.38
2018-11-20T10:44:14.217Z,97745.41
2018-11-20T10:46:40.726Z,97750.63
2018-11-20T10:49:15.241Z,97767.61
2018-11-20T10:51:42.107Z,97774.37
2018-11-20T10:54:10.643Z,97768.22
2018-11-20T10:56:37.067Z,97760.47
2018-11-20T10:59:03.861Z,97766.69
2018-11-20T11:02:02.432Z,97756.15
2018-11-20T11:04:07.173Z,97749.88
2018-11-20T11:06:33.642Z,97753.09
2018-11-20T11:09:00.079Z,97753.50
2018-11-20T11:11:32.836Z,97755.48
2018-11-20T11:13:59.348Z,97747.20
2018-11-20T11:16:25.710Z,97732.00
2018-11-20T11:18:59.196Z,97726.45
2018-11-20T11:21:21.523Z,97714.41
2018-11-20T11:23:47.944Z,97724.17
2018-11-20T11:26:14.784Z,97720.55
2018-11-20T11:28:41.787Z,97708.05
2018-11-20T11:31:08.262Z,97711.48
2018-11-20T11:33:35.121Z,97717.48
2018-11-20T11:36:03.036Z,97712.47
2018-11-20T11:38:29.407Z,97719.68
2018-11-20T11:40:56.467Z,97725.64
2018-11-20T11:43:26.325Z,97721.72
2018-11-20T11:45:57.109Z,97713.33
2018-11-20T11:48:24.052Z,97706.19
2018-11-20T11:50:50.486Z,97709.69
2018-11-20T11:53:17.518Z,97703.86
2018-11-20T11:55:44.800Z,97707.47
2018-11-20T11:58:11.593Z,97703.44
2018-11-20T12:00:38.046Z,97706.78
2018-11-20T12:05:30.434Z,97701.14
2018-11-20T12:07:56.778Z,97708.27
2018-11-20T12:10:28.921Z,97701.53
2018-11-20T12:12:53.809Z,97707.63
2018-11-20T12:15:20.242Z,97713.91
2018-11-20T12:17:50.293Z,97713.39
2018-11-20T12:20:16.103Z,97714.98
2018-11-20T12:22:42.913Z,97714.34
2018-11-20T12:25:09.339Z,97709.34
2018-11-20T12:27:36.174Z,97706.14
2018-11-20T12:30:04.843Z,97709.80
2018-11-20T12:32:31.269Z,97700.70
2018-11-20T12:34:57.617Z,97693.45
2018-11-20T12:37:24.544Z,97698.06
2018-11-20T12:39:50.823Z,97693.66
2018-11-20T12:42:17.246Z,97696.64
2018-11-20T12:44:46.932Z,97703.49
2018-11-20T12:47:15.218Z,97701.33
2018-11-20T12:49:39.809Z,97696.34
2018-11-20T12:52:06.537Z,97702.09
2018-11-20T12:54:32.883Z,97703.53
2018-11-20T12:57:02.473Z,97696.05
2018-11-20T12:59:34.243Z,97700.48
2018-11-20T13:02:01.917Z,97704.69
2018-11-20T13:04:32.371Z,97694.81
2018-11-20T13:07:00.656Z,97697.31
2018-11-20T13:09:26.252Z,97688.93
2018-11-20T13:11:52.606Z,97688.97
2018-11-20T13:14:22.329Z,97686.19
2018-11-20T13:16:46.043Z,97693.00
2018-11-20T13:19:14.173Z,97686.19
2018-11-20T13:21:44.714Z,97678.44
2018-11-20T13:24:09.589Z,97681.94
2018-11-20T13:26:34.138Z,97683.66
2018-11-20T13:29:03.128Z,97690.17
2018-11-20T13:31:27.486Z,97688.45
2018-11-20T13:33:54.397Z,97696.61
2018-11-20T13:36:23.996Z,97696.73
2018-11-20T13:38:52.033Z,97692.89
2018-11-20T13:41:16.725Z,97689.27
2018-11-20T13:43:43.607Z,97691.36
2018-11-20T13:46:09.952Z,97690.35
2018-11-20T13:48:36.369Z,97690.91
2018-11-20T13:51:03.105Z,97689.25
2018-11-20T13:53:29.532Z,97685.63
2018-11-20T13:55:55.967Z,97690.14
2018-11-20T13:58:22.886Z,97704.00
2018-11-20T14:00:49.258Z,97681.98
2018-11-20T14:03:15.707Z,97693.94
2018-11-20T14:05:44.135Z,97685.26
2018-11-20T14:08:10.580Z,97683.47
2018-11-20T14:10:39.041Z,97685.22
2018-11-20T14:13:07.761Z,97685.22
2018-11-20T14:15:34.242Z,97682.73
2018-11-20T14:18:00.626Z,97683.13
2018-11-20T14:20:27.452Z,97674.16
2018-11-20T14:22:53.827Z,97668.32
2018-11-20T14:25:20.319Z,97665.09
2018-11-20T14:27:47.090Z,97668.05
2018-11-20T14:30:13.550Z,97663.69
2018-11-20T14:32:40.431Z,97669.91
2018-11-20T14:35:07.316Z,97666.38
2018-11-20T14:37:33.734Z,97658.14
2018-11-20T14:40:00.100Z,97663.91
2018-11-20T14:42:26.943Z,97662.73
2018-11-20T14:44:53.349Z,97660.53
2018-11-20T14:47:20.951Z,97652.19
2018-11-20T14:49:47.385Z,97662.84
2018-11-20T14:52:13.752Z,97662.55
2018-11-20T14:54:40.926Z,97663.22
2018-11-20T14:57:07.391Z,97656.77
2018-11-20T14:59:33.830Z,97655.34
2018-11-20T15:02:04.172Z,97657.55
2018-11-20T15:04:29.782Z,97654.94
2018-11-20T15:06:56.142Z,97656.67
2018-11-20T15:09:22.885Z,97653.73
2018-11-20T15:11:51.105Z,97652.43
2018-11-20T15:14:16.402Z,97659.53
2018-11-20T15:16:43.437Z,97649.53
2018-11-20T15:19:09.745Z,97647.87
2018-11-20T15:21:36.235Z,97641.67
2018-11-20T15:24:02.882Z,97644.58
2018-11-20T15:26:29.326Z,97645.39
2018-11-20T15:28:55.776Z,97656.00
2018-11-20T15:31:23.493Z,97653.94
2018-11-20T15:33:49.844Z,97657.69
2018-11-20T15:36:16.277Z,97662.52
2018-11-20T15:38:42.938Z,97660.20
2018-11-20T15:41:09.769Z,97667.18
2018-11-20T15:43:39.002Z,97669.97
2018-11-20T15:46:07.440Z,97674.50
2018-11-20T15:48:39.410Z,97675.45
2018-11-20T15:51:05.982Z,97678.62
2018-11-20T15:53:34.059Z,97678.62
2018-11-20T15:56:01.704Z,97686.13
2018-11-20T15:58:32.922Z,97682.52
2018-11-20T16:00:59.291Z,97687.25
2018-11-20T16:03:26.231Z,97684.36
2018-11-20T16:05:54.542Z,97692.25
2018-11-20T16:08:21.022Z,97692.72
2018-11-20T16:10:47.472Z,97698.72
2018-11-20T16:13:16.693Z,97697.42
2018-11-20T16:15:52.212Z,97706.92
2018-11-20T16:18:13.291Z,97697.00
2018-11-20T16:20:42.287Z,97702.70
2018-11-20T16:23:09.838Z,97700.61
2018-11-20T16:25:36.881Z,97701.50
2018-11-20T16:28:05.337Z,97697.63
2018-11-20T16:30:31.775Z,97694.91
2018-11-20T16:32:58.619Z,97685.02
2018-11-20T16:35:25.293Z,97691.60
2018-11-20T16:37:57.295Z,97685.48
2018-11-20T16:40:23.776Z,97691.01
2018-11-20T16:42:50.452Z,97693.16
2018-11-20T16:45:16.805Z,97690.16
2018-11-20T16:47:43.241Z,97693.95
2018-11-20T16:50:10.033Z,97703.03
2018-11-20T16:52:38.100Z,97699.51
2018-11-20T16:57:44.752Z,97704.09
2018-11-20T17:00:11.340Z,97706.69
2018-11-20T17:02:37.728Z,97704.05
2018-11-20T17:05:07.260Z,97715.34
2018-11-20T17:07:34.767Z,97709.73
2018-11-20T17:10:00.270Z,97710.49
2018-11-20T17:12:29.787Z,97718.45
2018-11-20T17:17:27.490Z,97719.69
2018-11-20T17:19:54.320Z,97726.51
2018-11-20T17:22:20.682Z,97722.45
2018-11-20T17:24:47.152Z,97715.51
2018-11-20T17:27:13.926Z,97712.88
2018-11-20T17:29:40.413Z,97713.86
2018-11-20T17:32:08.776Z,97712.65
2018-11-20T17:34:33.700Z,97706.09
2018-11-20T17:39:38.838Z,97706.85
2018-11-20T17:42:07.327Z,97694.70
2018-11-20T17:44:33.682Z,97696.07
2018-11-20T17:47:03.046Z,97686.55
2018-11-20T17:49:31.273Z,97675.83
2018-11-20T17:52:04.981Z,97679.35
2018-11-20T17:54:33.481Z,97674.34
2018-11-20T17:57:03.386Z,97668.73
2018-11-20T17:59:30.417Z,97676.62
2018-11-20T18:01:58.657Z,97670.47
2018-11-20T18:04:30.574Z,97664.92
2018-11-20T18:06:59.775Z,97670.47
2018-11-20T18:09:26.615Z,97667.66
2018-11-20T18:11:53.694Z,97669.94
2018-11-20T18:14:19.982Z,97690.73
2018-11-20T18:16:46.761Z,97722.19
2018-11-20T18:19:13.110Z,97723.49
2018-11-20T18:21:40.981Z,97720.30
2018-11-20T18:24:07.935Z,97735.69
2018-11-20T18:26:34.369Z,97741.69
2018-11-20T18:29:00.791Z,97751.05
2018-11-20T18:31:29.473Z,97750.60
2018-11-20T18:33:56.478Z,97757.84
2018-11-20T18:36:24.955Z,97747.34
2018-11-20T18:38:51.757Z,97753.18
2018-11-20T18:41:18.182Z,97764.41
2018-11-20T18:43:44.524Z,97755.78
2018-11-20T18:46:11.349Z,97751.05
2018-11-20T18:48:41.060Z,97743.25
2018-11-20T18:51:06.204Z,97745.66
2018-11-20T18:53:33.095Z,97740.05
2018-11-20T18:55:59.623Z,97733.54
2018-11-20T18:58:25.973Z,97717.05
2018-11-20T19:00:55.142Z,97703.91
2018-11-20T19:03:21.503Z,97699.25
2018-11-20T19:05:47.875Z,97696.52
2018-11-20T19:08:14.754Z,97684.09
2018-11-20T19:10:41.174Z,97673.45
2018-11-20T19:13:07.625Z,97688.83
2018-11-20T19:15:37.427Z,97688.07
2018-11-20T19:18:02.544Z,97676.20
2018-11-20T19:20:29.165Z,97678.52
2018-11-20T19:22:56.831Z,97689.80
2018-11-20T19:25:23.271Z,97674.03
2018-11-20T19:27:49.688Z,97672.47
2018-11-20T19:30:18.732Z,97672.94
2018-11-20T19:32:45.448Z,97673.12
2018-11-20T19:35:13.030Z,97664.02
2018-11-20T19:37:41.622Z,97668.93
2018-11-20T19:40:09.045Z,97677.20
2018-11-20T19:42:36.465Z,97687.65
2018-11-20T19:45:02.521Z,97693.20
2018-11-20T19:47:30.011Z,97720.92
2018-11-20T19:49:55.299Z,97759.22
2018-11-20T19:52:24.971Z,97763.17
2018-11-20T19:54:51.308Z,97762.32
2018-11-20T19:57:17.658Z,97755.20
2018-11-20T19:59:44.465Z,97745.48
2018-11-20T20:02:10.793Z,97746.36
2018-11-20T20:04:37.235Z,97753.92
2018-11-20T20:07:04.071Z,97747.16
2018-11-20T20:09:33.649Z,97754.70
2018-11-20T20:11:59.969Z,97767.07
2018-11-20T20:14:29.383Z,97774.56
2018-11-20T20:16:55.733Z,97781.31
2018-11-20T20:19:32.633Z,97779.98
2018-11-20T20:22:02.745Z,97772.52
2018-11-20T20:24:29.585Z,97770.75
2018-11-20T20:26:56.143Z,97774.63
2018-11-20T20:29:32.259Z,97785.27
2018-11-20T20:34:37.643Z,97770.20
2018-11-20T20:37:09.054Z,97781.79
2018-11-20T20:39:36.464Z,97786.07
2018-11-20T20:42:03.193Z,97787.11
2018-11-20T20:44:29.626Z,97799.23
2018-11-20T20:46:55.976Z,97781.40
2018-11-20T20:49:22.756Z,97792.38
2018-11-20T20:51:49.177Z,97801.72
2018-11-20T20:54:15.712Z,97808.16
2018-11-20T20:56:42.489Z,97819.22
2018-11-20T20:59:08.841Z,97822.91
2018-11-20T21:01:35.190Z,97818.84
2018-11-20T21:04:01.953Z,97817.27
2018-11-20T21:06:28.380Z,97796.70
2018-11-20T21:08:54.824Z,97795.58
2018-11-20T21:11:21.662Z,97806.06
2018-11-20T21:13:48.004Z,97821.23
2018-11-20T21:16:14.426Z,97816.67
2018-11-20T21:18:41.111Z,97803.03
2018-11-20T21:21:07.535Z,97804.19
2018-11-20T21:23:33.874Z,97809.30
2018-11-20T21:26:02.099Z,97822.36
2018-11-20T21:28:32.932Z,97819.26
2018-11-20T21:31:02.196Z,97823.95
2018-11-20T21:33:28.971Z,97832.70
2018-11-20T21:35:55.746Z,97831.16
2018-11-20T21:38:22.179Z,97839.54
2018-11-20T21:40:48.914Z,97837.52
2018-11-20T21:43:15.432Z,97836.67
2018-11-20T21:45:41.865Z,97838.84
2018-11-20T21:48:08.714Z,97828.02
2018-11-20T21:50:37.206Z,97817.67
2018-11-20T21:53:04.856Z,97827.05
2018-11-20T21:55:31.695Z,97835.81
2018-11-20T21:57:58.122Z,97844.98
2018-11-20T22:00:24.843Z,97848.01
2018-11-20T22:02:51.607Z,97863.70
2018-11-20T22:05:21.672Z,97864.86
2018-11-20T22:07:47.990Z,97874.66
2018-11-20T22:10:16.861Z,97883.97
2018-11-20T22:12:43.312Z,97879.47
2018-11-20T22:15:09.713Z,97878.17
2018-11-20T22:17:36.449Z,97882.30
2018-11-20T22:20:02.877Z,97889.02
2018-11-20T22:22:29.339Z,97898.50
2018-11-20T22:24:56.149Z,97899.51
2018-11-20T22:27:23.144Z,97896.09
2018-11-20T22:29:49.488Z,97919.04
2018-11-20T22:32:16.337Z,97913.94
2018-11-20T22:34:42.690Z,97919.27
2018-11-20T22:37:10.319Z,97925.24
2018-11-20T22:39:35.994Z,97920.44
2018-11-20T22:42:02.340Z,97920.34
2018-11-20T22:44:28.751Z,97931.21
2018-11-20T22:46:55.480Z,97920.41
2018-11-20T22:49:21.911Z,97901.83
2018-11-20T22:51:48.256Z,97906.55
2018-11-20T22:54:14.974Z,97907.58
2018-11-20T22:56:41.430Z,97916.77
2018-11-20T22:59:08.298Z,97921.14
2018-11-20T23:01:35.110Z,97915.55
2018-11-20T23:04:01.449Z,97917.07
2018-11-20T23:06:27.881Z,97920.89
2018-11-20T23:08:55.904Z,97920.99
2018-11-20T23:11:22.250Z,97904.47
2018-11-20T23:13:50.763Z,97903.88
2018-11-20T23:16:17.630Z,97912.31
2018-11-20T23:18:44.404Z,97910.74
2018-11-20T23:21:10.752Z,97911.48
2018-11-20T23:23:37.472Z,97907.76
2018-11-20T23:26:04.153Z,97913.64
2018-11-20T23:28:30.565Z,97903.78
2018-11-20T23:30:57.378Z,97909.47
2018-11-20T23:33:24.159Z,97922.19
2018-11-20T23:35:50.657Z,97928.78
2018-11-20T23:38:17.077Z,97915.39
2018-11-20T23:40:43.887Z,97911.87
2018-11-20T23:43:10.237Z,97916.78
2018-11-20T23:45:36.656Z,97913.85
2018-11-20T23:48:03.024Z,97915.56
2018-11-20T23:50:29.840Z,97905.51
2018-11-20T23:52:56.186Z,97905.63
2018-11-20T23:55:22.540Z,97904.68
2018-11-20T23:57:49.336Z,97905.77
